EHRD

Rotterdam The Hague Airport

Airport
ICAO code
EHRD
IATA Code
RTM
Summary
ICAO Region
EUR
ICAO Territory
Location

Rotterdam, Zuid-Holland

Serving
Rotterdam
Elevation
-15 ft
Coordinates
51° 57' 25" N , 4° 26' 14" E
KCC
Cfb
Metar
Observation
EHRD 170955Z AUTO 34006KT 290V030 9999 -DZ FEW034 20/18 Q1011 REDZ NOSIG
Station
Rotterdam Airport Zestienhoven
Date/Time
2022-08-17 09:55:00
Wind direction
340°
Wind speed
06 kts
Lowest cloud amount
few clouds
Temperature
20°C
Dew point
18°C
Humidity
88%
QNH
1011 hPa
Weather condition
light drizzle

International airport serving Rotterdam and The Hague, The Netherlands. Rotterdam The Hague Airport (formerly: Rotterdam Airport, Vliegveld Zestienhoven), located 3 nm north northwest of Rotterdam, the Netherlands.

Climatology

Temperate Marine climate/Oceanic climate (Köppen climate classification Cfb). Moderately cool summer and comparatively warm winter with a temperature range of only 14°C. Prevailing south-westerly winds from the Atlantic Ocean.

Runways

Designator Length Width Surface Rops
6/24 2200 45 ASP Yes/Yes

Airport map

Aerial View

SKYbrary Partners:

Safety knowledge contributed by: